Washington, District of Columbia
Traffic Map
Current Weather Conditions
Washington, District of Columbia
Broken Clouds
Broken Clouds
82°
Feels Like: 92°
Wind Chill: 82° Ceiling: 5500
Heat Index: 92° Visibility: 10mi
Dew Point: 79° Wind: 9mph
Humidity: 90% Direction: 180° (S)
Pressure: 29.8in Gusts: 0mph
Raw Report DataKDCA 231852Z 18008KT 10SM FEW030 BKN055 BKN120 28/26 A2980 RMK AO2 PK WND 22027/1758 RAE26 TSB11E19 SLP091 P0041 T02780261
Traffic Incident Summary
Active as of:
Severity:
Category:
InformationThere was an issue retrieving the traffic information for this location. Please try a different location or try again shortly.
Advertisements
Track Severe Weather on mobile